<?xml version="1.0" encoding="UTF-8" standalone="no" ?>
<gpx xmlns="http://www.topografix.com/GPX/1/1" xmlns:xsi="http://www.w3.org/2001/XMLSchema-instance" xsi:schemaLocation="http://www.topografix.com/GPX/1/1 http://www.topografix.com/GPX/1/1/gpx.xsd" version="1.1" creator="VisuGPX - https://www.visugpx.com">
  <metadata>
    <name>83-M-St Ferreol          </name>
    <desc><![CDATA[83-M-St Ferreol : pic-nic              ]]></desc>
  </metadata>
  <trk>
    <name><![CDATA[2018-06-20-M-St ferreol]]></name>
    <trkseg>
      <trkpt lat="43.5006" lon="6.37371">
        <ele>283.8</ele>
        <time>2018-06-20T07:08:08Z</time>
      </trkpt>
      <trkpt lat="43.5006" lon="6.37371">
        <ele>283.8</ele>
        <time>2018-06-20T07:08:09Z</time>
      </trkpt>
      <trkpt lat="43.50063" lon="6.37359">
        <ele>284.4</ele>
        <time>2018-06-20T07:09:43Z</time>
      </trkpt>
      <trkpt lat="43.50069" lon="6.37349">
        <ele>285.2</ele>
        <time>2018-06-20T07:10:04Z</time>
      </trkpt>
      <trkpt lat="43.50075" lon="6.37359">
        <ele>284</ele>
        <time>2018-06-20T07:12:33Z</time>
      </trkpt>
      <trkpt lat="43.5008" lon="6.37369">
        <ele>283.3</ele>
        <time>2018-06-20T07:13:05Z</time>
      </trkpt>
      <trkpt lat="43.50089" lon="6.3737">
        <ele>283</ele>
        <time>2018-06-20T07:14:48Z</time>
      </trkpt>
      <trkpt lat="43.50088" lon="6.37383">
        <ele>282.5</ele>
        <time>2018-06-20T07:15:08Z</time>
      </trkpt>
      <trkpt lat="43.50089" lon="6.37396">
        <ele>282.5</ele>
        <time>2018-06-20T07:15:19Z</time>
      </trkpt>
      <trkpt lat="43.50092" lon="6.37409">
        <ele>281.7</ele>
        <time>2018-06-20T07:15:33Z</time>
      </trkpt>
      <trkpt lat="43.50091" lon="6.37422">
        <ele>280.7</ele>
        <time>2018-06-20T07:15:45Z</time>
      </trkpt>
      <trkpt lat="43.50095" lon="6.37433">
        <ele>279.1</ele>
        <time>2018-06-20T07:16:00Z</time>
      </trkpt>
      <trkpt lat="43.50093" lon="6.37446">
        <ele>277.9</ele>
        <time>2018-06-20T07:16:23Z</time>
      </trkpt>
      <trkpt lat="43.50089" lon="6.37457">
        <ele>277.2</ele>
        <time>2018-06-20T07:16:52Z</time>
      </trkpt>
      <trkpt lat="43.50095" lon="6.37467">
        <ele>273.7</ele>
        <time>2018-06-20T07:19:21Z</time>
      </trkpt>
      <trkpt lat="43.501" lon="6.37477">
        <ele>272.1</ele>
        <time>2018-06-20T07:19:39Z</time>
      </trkpt>
      <trkpt lat="43.50103" lon="6.37489">
        <ele>270.4</ele>
        <time>2018-06-20T07:19:54Z</time>
      </trkpt>
      <trkpt lat="43.5011" lon="6.37498">
        <ele>269.4</ele>
        <time>2018-06-20T07:20:06Z</time>
      </trkpt>
      <trkpt lat="43.5011" lon="6.37511">
        <ele>268.2</ele>
        <time>2018-06-20T07:20:15Z</time>
      </trkpt>
      <trkpt lat="43.50111" lon="6.37524">
        <ele>266.9</ele>
        <time>2018-06-20T07:20:23Z</time>
      </trkpt>
      <trkpt lat="43.50115" lon="6.37535">
        <ele>266.3</ele>
        <time>2018-06-20T07:20:32Z</time>
      </trkpt>
      <trkpt lat="43.50121" lon="6.37546">
        <ele>265.9</ele>
        <time>2018-06-20T07:20:38Z</time>
      </trkpt>
      <trkpt lat="43.50126" lon="6.37557">
        <ele>265.1</ele>
        <time>2018-06-20T07:20:45Z</time>
      </trkpt>
      <trkpt lat="43.50131" lon="6.37567">
        <ele>264.6</ele>
        <time>2018-06-20T07:20:53Z</time>
      </trkpt>
      <trkpt lat="43.50137" lon="6.37577">
        <ele>264.4</ele>
        <time>2018-06-20T07:21:02Z</time>
      </trkpt>
      <trkpt lat="43.50142" lon="6.37588">
        <ele>264.1</ele>
        <time>2018-06-20T07:21:11Z</time>
      </trkpt>
      <trkpt lat="43.50148" lon="6.37598">
        <ele>262.5</ele>
        <time>2018-06-20T07:21:26Z</time>
      </trkpt>
      <trkpt lat="43.50154" lon="6.37609">
        <ele>261.1</ele>
        <time>2018-06-20T07:21:40Z</time>
      </trkpt>
      <trkpt lat="43.50161" lon="6.37617">
        <ele>261.2</ele>
        <time>2018-06-20T07:21:52Z</time>
      </trkpt>
      <trkpt lat="43.50168" lon="6.37625">
        <ele>261.5</ele>
        <time>2018-06-20T07:22:03Z</time>
      </trkpt>
      <trkpt lat="43.50175" lon="6.37633">
        <ele>260.8</ele>
        <time>2018-06-20T07:22:15Z</time>
      </trkpt>
      <trkpt lat="43.5018" lon="6.37645">
        <ele>260.6</ele>
        <time>2018-06-20T07:22:26Z</time>
      </trkpt>
      <trkpt lat="43.50183" lon="6.37657">
        <ele>260.5</ele>
        <time>2018-06-20T07:22:34Z</time>
      </trkpt>
      <trkpt lat="43.50185" lon="6.3767">
        <ele>259.5</ele>
        <time>2018-06-20T07:22:45Z</time>
      </trkpt>
      <trkpt lat="43.50188" lon="6.37681">
        <ele>258.6</ele>
        <time>2018-06-20T07:22:55Z</time>
      </trkpt>
      <trkpt lat="43.50193" lon="6.37694">
        <ele>258</ele>
        <time>2018-06-20T07:23:08Z</time>
      </trkpt>
      <trkpt lat="43.50192" lon="6.37706">
        <ele>257.3</ele>
        <time>2018-06-20T07:23:15Z</time>
      </trkpt>
      <trkpt lat="43.50193" lon="6.3772">
        <ele>256.9</ele>
        <time>2018-06-20T07:23:24Z</time>
      </trkpt>
      <trkpt lat="43.50193" lon="6.37733">
        <ele>256.5</ele>
        <time>2018-06-20T07:23:33Z</time>
      </trkpt>
      <trkpt lat="43.50198" lon="6.37746">
        <ele>256.4</ele>
        <time>2018-06-20T07:23:44Z</time>
      </trkpt>
      <trkpt lat="43.50201" lon="6.37758">
        <ele>255.6</ele>
        <time>2018-06-20T07:23:52Z</time>
      </trkpt>
      <trkpt lat="43.50205" lon="6.3777">
        <ele>255.1</ele>
        <time>2018-06-20T07:24:00Z</time>
      </trkpt>
      <trkpt lat="43.50208" lon="6.37783">
        <ele>255.1</ele>
        <time>2018-06-20T07:24:10Z</time>
      </trkpt>
      <trkpt lat="43.5021" lon="6.37796">
        <ele>255</ele>
        <time>2018-06-20T07:24:19Z</time>
      </trkpt>
      <trkpt lat="43.50213" lon="6.37808">
        <ele>254.2</ele>
        <time>2018-06-20T07:24:28Z</time>
      </trkpt>
      <trkpt lat="43.50214" lon="6.37821">
        <ele>253.4</ele>
        <time>2018-06-20T07:24:39Z</time>
      </trkpt>
      <trkpt lat="43.50212" lon="6.37833">
        <ele>253.6</ele>
        <time>2018-06-20T07:24:49Z</time>
      </trkpt>
      <trkpt lat="43.50213" lon="6.37846">
        <ele>253.3</ele>
        <time>2018-06-20T07:24:58Z</time>
      </trkpt>
      <trkpt lat="43.50216" lon="6.37858">
        <ele>253.1</ele>
        <time>2018-06-20T07:25:07Z</time>
      </trkpt>
      <trkpt lat="43.50218" lon="6.3787">
        <ele>252.5</ele>
        <time>2018-06-20T07:25:16Z</time>
      </trkpt>
      <trkpt lat="43.5022" lon="6.37883">
        <ele>252.3</ele>
        <time>2018-06-20T07:25:26Z</time>
      </trkpt>
      <trkpt lat="43.50225" lon="6.37894">
        <ele>252.5</ele>
        <time>2018-06-20T07:25:34Z</time>
      </trkpt>
      <trkpt lat="43.50226" lon="6.37907">
        <ele>251.4</ele>
        <time>2018-06-20T07:25:42Z</time>
      </trkpt>
      <trkpt lat="43.50228" lon="6.37919">
        <ele>250</ele>
        <time>2018-06-20T07:25:52Z</time>
      </trkpt>
      <trkpt lat="43.50235" lon="6.37929">
        <ele>248.3</ele>
        <time>2018-06-20T07:26:11Z</time>
      </trkpt>
      <trkpt lat="43.50242" lon="6.37937">
        <ele>246.2</ele>
        <time>2018-06-20T07:26:33Z</time>
      </trkpt>
      <trkpt lat="43.50251" lon="6.37942">
        <ele>245</ele>
        <time>2018-06-20T07:27:51Z</time>
      </trkpt>
      <trkpt lat="43.50258" lon="6.37949">
        <ele>243.8</ele>
        <time>2018-06-20T07:28:05Z</time>
      </trkpt>
      <trkpt lat="43.50261" lon="6.37961">
        <ele>243.6</ele>
        <time>2018-06-20T07:28:20Z</time>
      </trkpt>
      <trkpt lat="43.50262" lon="6.37974">
        <ele>243.1</ele>
        <time>2018-06-20T07:28:34Z</time>
      </trkpt>
      <trkpt lat="43.50268" lon="6.37983">
        <ele>243.1</ele>
        <time>2018-06-20T07:28:44Z</time>
      </trkpt>
      <trkpt lat="43.50271" lon="6.37995">
        <ele>243.8</ele>
        <time>2018-06-20T07:28:55Z</time>
      </trkpt>
      <trkpt lat="43.50274" lon="6.38007">
        <ele>244.3</ele>
        <time>2018-06-20T07:29:06Z</time>
      </trkpt>
      <trkpt lat="43.50276" lon="6.38019">
        <ele>245.2</ele>
        <time>2018-06-20T07:29:23Z</time>
      </trkpt>
      <trkpt lat="43.50275" lon="6.38031">
        <ele>245</ele>
        <time>2018-06-20T07:29:38Z</time>
      </trkpt>
      <trkpt lat="43.50273" lon="6.38044">
        <ele>244.5</ele>
        <time>2018-06-20T07:29:51Z</time>
      </trkpt>
      <trkpt lat="43.50276" lon="6.38057">
        <ele>243.5</ele>
        <time>2018-06-20T07:30:02Z</time>
      </trkpt>
      <trkpt lat="43.50279" lon="6.3807">
        <ele>243.4</ele>
        <time>2018-06-20T07:30:12Z</time>
      </trkpt>
      <trkpt lat="43.5028" lon="6.38082">
        <ele>243.5</ele>
        <time>2018-06-20T07:30:20Z</time>
      </trkpt>
      <trkpt lat="43.50282" lon="6.38095">
        <ele>243</ele>
        <time>2018-06-20T07:30:29Z</time>
      </trkpt>
      <trkpt lat="43.50287" lon="6.38105">
        <ele>242.6</ele>
        <time>2018-06-20T07:30:39Z</time>
      </trkpt>
      <trkpt lat="43.50291" lon="6.38118">
        <ele>242</ele>
        <time>2018-06-20T07:30:53Z</time>
      </trkpt>
      <trkpt lat="43.50291" lon="6.38131">
        <ele>241.8</ele>
        <time>2018-06-20T07:31:03Z</time>
      </trkpt>
      <trkpt lat="43.50295" lon="6.38144">
        <ele>241.5</ele>
        <time>2018-06-20T07:31:13Z</time>
      </trkpt>
      <trkpt lat="43.50302" lon="6.38153">
        <ele>241.9</ele>
        <time>2018-06-20T07:31:25Z</time>
      </trkpt>
      <trkpt lat="43.50306" lon="6.38165">
        <ele>241.7</ele>
        <time>2018-06-20T07:31:34Z</time>
      </trkpt>
      <trkpt lat="43.5031" lon="6.38176">
        <ele>241.5</ele>
        <time>2018-06-20T07:31:43Z</time>
      </trkpt>
      <trkpt lat="43.50309" lon="6.38188">
        <ele>241.2</ele>
        <time>2018-06-20T07:32:11Z</time>
      </trkpt>
      <trkpt lat="43.50318" lon="6.38184">
        <ele>242</ele>
        <time>2018-06-20T07:32:40Z</time>
      </trkpt>
      <trkpt lat="43.50328" lon="6.38186">
        <ele>242</ele>
        <time>2018-06-20T07:32:51Z</time>
      </trkpt>
      <trkpt lat="43.50336" lon="6.3819">
        <ele>241.8</ele>
        <time>2018-06-20T07:32:57Z</time>
      </trkpt>
      <trkpt lat="43.50343" lon="6.38199">
        <ele>241.5</ele>
        <time>2018-06-20T07:33:05Z</time>
      </trkpt>
      <trkpt lat="43.50351" lon="6.38208">
        <ele>240.8</ele>
        <time>2018-06-20T07:33:13Z</time>
      </trkpt>
      <trkpt lat="43.50358" lon="6.38218">
        <ele>241</ele>
        <time>2018-06-20T07:33:24Z</time>
      </trkpt>
      <trkpt lat="43.50363" lon="6.38228">
        <ele>240.6</ele>
        <time>2018-06-20T07:33:34Z</time>
      </trkpt>
      <trkpt lat="43.50368" lon="6.38238">
        <ele>240.6</ele>
        <time>2018-06-20T07:33:41Z</time>
      </trkpt>
      <trkpt lat="43.50374" lon="6.38247">
        <ele>240.2</ele>
        <time>2018-06-20T07:33:50Z</time>
      </trkpt>
      <trkpt lat="43.50383" lon="6.38253">
        <ele>239.1</ele>
        <time>2018-06-20T07:34:03Z</time>
      </trkpt>
      <trkpt lat="43.50392" lon="6.38256">
        <ele>238.1</ele>
        <time>2018-06-20T07:34:14Z</time>
      </trkpt>
      <trkpt lat="43.50401" lon="6.38259">
        <ele>237.3</ele>
        <time>2018-06-20T07:34:23Z</time>
      </trkpt>
      <trkpt lat="43.5041" lon="6.38258">
        <ele>236.5</ele>
        <time>2018-06-20T07:34:31Z</time>
      </trkpt>
      <trkpt lat="43.5042" lon="6.38257">
        <ele>236.4</ele>
        <time>2018-06-20T07:34:37Z</time>
      </trkpt>
      <trkpt lat="43.5043" lon="6.38256">
        <ele>236.4</ele>
        <time>2018-06-20T07:34:46Z</time>
      </trkpt>
      <trkpt lat="43.50437" lon="6.38263">
        <ele>236.7</ele>
        <time>2018-06-20T07:34:58Z</time>
      </trkpt>
      <trkpt lat="43.50445" lon="6.38273">
        <ele>236</ele>
        <time>2018-06-20T07:35:08Z</time>
      </trkpt>
      <trkpt lat="43.50449" lon="6.38286">
        <ele>235.9</ele>
        <time>2018-06-20T07:35:15Z</time>
      </trkpt>
      <trkpt lat="43.50453" lon="6.38298">
        <ele>235.7</ele>
        <time>2018-06-20T07:35:23Z</time>
      </trkpt>
      <trkpt lat="43.50458" lon="6.38309">
        <ele>235.6</ele>
        <time>2018-06-20T07:35:33Z</time>
      </trkpt>
      <trkpt lat="43.50465" lon="6.38318">
        <ele>235</ele>
        <time>2018-06-20T07:35:44Z</time>
      </trkpt>
      <trkpt lat="43.50471" lon="6.38327">
        <ele>234.8</ele>
        <time>2018-06-20T07:35:55Z</time>
      </trkpt>
      <trkpt lat="43.50477" lon="6.38337">
        <ele>234.2</ele>
        <time>2018-06-20T07:36:06Z</time>
      </trkpt>
      <trkpt lat="43.50483" lon="6.38347">
        <ele>234.1</ele>
        <time>2018-06-20T07:36:14Z</time>
      </trkpt>
      <trkpt lat="43.5049" lon="6.38354">
        <ele>233.8</ele>
        <time>2018-06-20T07:36:24Z</time>
      </trkpt>
      <trkpt lat="43.50496" lon="6.38365">
        <ele>233.8</ele>
        <time>2018-06-20T07:36:36Z</time>
      </trkpt>
      <trkpt lat="43.50501" lon="6.38375">
        <ele>233.3</ele>
        <time>2018-06-20T07:36:44Z</time>
      </trkpt>
      <trkpt lat="43.50506" lon="6.38387">
        <ele>232.8</ele>
        <time>2018-06-20T07:36:54Z</time>
      </trkpt>
      <trkpt lat="43.50511" lon="6.38398">
        <ele>232.2</ele>
        <time>2018-06-20T07:37:03Z</time>
      </trkpt>
      <trkpt lat="43.50515" lon="6.38409">
        <ele>231.3</ele>
        <time>2018-06-20T07:37:16Z</time>
      </trkpt>
      <trkpt lat="43.50518" lon="6.38421">
        <ele>229.2</ele>
        <time>2018-06-20T07:37:34Z</time>
      </trkpt>
      <trkpt lat="43.50522" lon="6.38432">
        <ele>229</ele>
        <time>2018-06-20T07:38:20Z</time>
      </trkpt>
      <trkpt lat="43.50527" lon="6.38444">
        <ele>227</ele>
        <time>2018-06-20T07:38:46Z</time>
      </trkpt>
      <trkpt lat="43.5053" lon="6.38457">
        <ele>225.5</ele>
        <time>2018-06-20T07:39:01Z</time>
      </trkpt>
      <trkpt lat="43.50534" lon="6.38469">
        <ele>224.9</ele>
        <time>2018-06-20T07:39:10Z</time>
      </trkpt>
      <trkpt lat="43.50533" lon="6.38482">
        <ele>222.8</ele>
        <time>2018-06-20T07:39:48Z</time>
      </trkpt>
      <trkpt lat="43.50537" lon="6.38494">
        <ele>221.9</ele>
        <time>2018-06-20T07:39:58Z</time>
      </trkpt>
      <trkpt lat="43.50541" lon="6.38505">
        <ele>221</ele>
        <time>2018-06-20T07:40:06Z</time>
      </trkpt>
      <trkpt lat="43.50546" lon="6.38517">
        <ele>220.3</ele>
        <time>2018-06-20T07:40:15Z</time>
      </trkpt>
      <trkpt lat="43.5055" lon="6.38528">
        <ele>219.8</ele>
        <time>2018-06-20T07:40:22Z</time>
      </trkpt>
      <trkpt lat="43.50551" lon="6.3854">
        <ele>219</ele>
        <time>2018-06-20T07:40:29Z</time>
      </trkpt>
      <trkpt lat="43.5055" lon="6.38553">
        <ele>218</ele>
        <time>2018-06-20T07:40:36Z</time>
      </trkpt>
      <trkpt lat="43.50555" lon="6.38565">
        <ele>216.2</ele>
        <time>2018-06-20T07:40:45Z</time>
      </trkpt>
      <trkpt lat="43.50557" lon="6.38577">
        <ele>216</ele>
        <time>2018-06-20T07:40:53Z</time>
      </trkpt>
      <trkpt lat="43.50559" lon="6.3859">
        <ele>214.9</ele>
        <time>2018-06-20T07:41:01Z</time>
      </trkpt>
      <trkpt lat="43.50561" lon="6.38603">
        <ele>213.6</ele>
        <time>2018-06-20T07:41:08Z</time>
      </trkpt>
      <trkpt lat="43.50565" lon="6.38615">
        <ele>213.3</ele>
        <time>2018-06-20T07:41:17Z</time>
      </trkpt>
      <trkpt lat="43.50569" lon="6.38627">
        <ele>212.6</ele>
        <time>2018-06-20T07:41:25Z</time>
      </trkpt>
      <trkpt lat="43.50573" lon="6.38639">
        <ele>211.9</ele>
        <time>2018-06-20T07:41:32Z</time>
      </trkpt>
      <trkpt lat="43.50577" lon="6.3865">
        <ele>210.2</ele>
        <time>2018-06-20T07:41:39Z</time>
      </trkpt>
      <trkpt lat="43.50581" lon="6.38663">
        <ele>208.7</ele>
        <time>2018-06-20T07:41:47Z</time>
      </trkpt>
      <trkpt lat="43.50587" lon="6.38673">
        <ele>207.4</ele>
        <time>2018-06-20T07:41:56Z</time>
      </trkpt>
      <trkpt lat="43.50595" lon="6.38681">
        <ele>206.1</ele>
        <time>2018-06-20T07:42:04Z</time>
      </trkpt>
      <trkpt lat="43.50605" lon="6.38686">
        <ele>204.4</ele>
        <time>2018-06-20T07:42:14Z</time>
      </trkpt>
      <trkpt lat="43.50613" lon="6.38692">
        <ele>203.6</ele>
        <time>2018-06-20T07:42:21Z</time>
      </trkpt>
      <trkpt lat="43.50623" lon="6.38694">
        <ele>202.4</ele>
        <time>2018-06-20T07:42:32Z</time>
      </trkpt>
      <trkpt lat="43.50632" lon="6.38698">
        <ele>201.4</ele>
        <time>2018-06-20T07:42:51Z</time>
      </trkpt>
      <trkpt lat="43.50638" lon="6.38708">
        <ele>200.3</ele>
        <time>2018-06-20T07:43:02Z</time>
      </trkpt>
      <trkpt lat="43.50642" lon="6.3872">
        <ele>199.2</ele>
        <time>2018-06-20T07:43:11Z</time>
      </trkpt>
      <trkpt lat="43.50644" lon="6.38733">
        <ele>198.3</ele>
        <time>2018-06-20T07:43:21Z</time>
      </trkpt>
      <trkpt lat="43.50645" lon="6.38746">
        <ele>197.1</ele>
        <time>2018-06-20T07:43:31Z</time>
      </trkpt>
      <trkpt lat="43.50646" lon="6.38758">
        <ele>195.1</ele>
        <time>2018-06-20T07:44:12Z</time>
      </trkpt>
      <trkpt lat="43.50655" lon="6.38761">
        <ele>194.9</ele>
        <time>2018-06-20T07:44:31Z</time>
      </trkpt>
      <trkpt lat="43.50664" lon="6.38762">
        <ele>194.2</ele>
        <time>2018-06-20T07:44:42Z</time>
      </trkpt>
      <trkpt lat="43.50673" lon="6.38765">
        <ele>192.9</ele>
        <time>2018-06-20T07:44:52Z</time>
      </trkpt>
      <trkpt lat="43.50682" lon="6.38768">
        <ele>192.5</ele>
        <time>2018-06-20T07:45:02Z</time>
      </trkpt>
      <trkpt lat="43.50692" lon="6.38771">
        <ele>190.9</ele>
        <time>2018-06-20T07:45:12Z</time>
      </trkpt>
      <trkpt lat="43.50702" lon="6.3877">
        <ele>190.1</ele>
        <time>2018-06-20T07:45:22Z</time>
      </trkpt>
      <trkpt lat="43.50711" lon="6.38767">
        <ele>189.1</ele>
        <time>2018-06-20T07:45:34Z</time>
      </trkpt>
      <trkpt lat="43.5072" lon="6.38764">
        <ele>188.8</ele>
        <time>2018-06-20T07:45:42Z</time>
      </trkpt>
      <trkpt lat="43.50729" lon="6.38763">
        <ele>188.3</ele>
        <time>2018-06-20T07:45:50Z</time>
      </trkpt>
      <trkpt lat="43.50739" lon="6.38764">
        <ele>188.2</ele>
        <time>2018-06-20T07:46:00Z</time>
      </trkpt>
      <trkpt lat="43.50748" lon="6.38767">
        <ele>188.3</ele>
        <time>2018-06-20T07:46:16Z</time>
      </trkpt>
      <trkpt lat="43.50739" lon="6.38771">
        <ele>187.3</ele>
        <time>2018-06-20T07:49:34Z</time>
      </trkpt>
      <trkpt lat="43.50729" lon="6.38771">
        <ele>187</ele>
        <time>2018-06-20T07:49:45Z</time>
      </trkpt>
      <trkpt lat="43.50719" lon="6.38772">
        <ele>186.8</ele>
        <time>2018-06-20T07:49:55Z</time>
      </trkpt>
      <trkpt lat="43.5071" lon="6.38776">
        <ele>186.8</ele>
        <time>2018-06-20T07:50:05Z</time>
      </trkpt>
      <trkpt lat="43.507" lon="6.38777">
        <ele>187.1</ele>
        <time>2018-06-20T07:50:14Z</time>
      </trkpt>
      <trkpt lat="43.5069" lon="6.38776">
        <ele>187.6</ele>
        <time>2018-06-20T07:50:23Z</time>
      </trkpt>
      <trkpt lat="43.50681" lon="6.38774">
        <ele>188.4</ele>
        <time>2018-06-20T07:50:32Z</time>
      </trkpt>
      <trkpt lat="43.50671" lon="6.38771">
        <ele>188.9</ele>
        <time>2018-06-20T07:50:42Z</time>
      </trkpt>
      <trkpt lat="43.50661" lon="6.38771">
        <ele>189.2</ele>
        <time>2018-06-20T07:50:51Z</time>
      </trkpt>
      <trkpt lat="43.50652" lon="6.38771">
        <ele>189.9</ele>
        <time>2018-06-20T07:51:01Z</time>
      </trkpt>
      <trkpt lat="43.50645" lon="6.3878">
        <ele>190.8</ele>
        <time>2018-06-20T07:51:22Z</time>
      </trkpt>
      <trkpt lat="43.50644" lon="6.38793">
        <ele>190.7</ele>
        <time>2018-06-20T07:51:32Z</time>
      </trkpt>
      <trkpt lat="43.50642" lon="6.38805">
        <ele>189.9</ele>
        <time>2018-06-20T07:51:42Z</time>
      </trkpt>
      <trkpt lat="43.50638" lon="6.38817">
        <ele>190.3</ele>
        <time>2018-06-20T07:51:54Z</time>
      </trkpt>
      <trkpt lat="43.50634" lon="6.38829">
        <ele>189</ele>
        <time>2018-06-20T07:52:07Z</time>
      </trkpt>
      <trkpt lat="43.50632" lon="6.38841">
        <ele>188.5</ele>
        <time>2018-06-20T07:52:17Z</time>
      </trkpt>
      <trkpt lat="43.50631" lon="6.38854">
        <ele>187.9</ele>
        <time>2018-06-20T07:52:27Z</time>
      </trkpt>
      <trkpt lat="43.5063" lon="6.38867">
        <ele>186.9</ele>
        <time>2018-06-20T07:52:35Z</time>
      </trkpt>
      <trkpt lat="43.50628" lon="6.38881">
        <ele>186</ele>
        <time>2018-06-20T07:52:44Z</time>
      </trkpt>
      <trkpt lat="43.50629" lon="6.38894">
        <ele>185.8</ele>
        <time>2018-06-20T07:52:53Z</time>
      </trkpt>
      <trkpt lat="43.50628" lon="6.38906">
        <ele>185.1</ele>
        <time>2018-06-20T07:53:09Z</time>
      </trkpt>
      <trkpt lat="43.50632" lon="6.38918">
        <ele>185</ele>
        <time>2018-06-20T07:53:19Z</time>
      </trkpt>
      <trkpt lat="43.50633" lon="6.38931">
        <ele>184.6</ele>
        <time>2018-06-20T07:53:29Z</time>
      </trkpt>
      <trkpt lat="43.50638" lon="6.38942">
        <ele>184.1</ele>
        <time>2018-06-20T07:53:37Z</time>
      </trkpt>
      <trkpt lat="43.50643" lon="6.38954">
        <ele>184.1</ele>
        <time>2018-06-20T07:53:49Z</time>
      </trkpt>
      <trkpt lat="43.50647" lon="6.38965">
        <ele>183.6</ele>
        <time>2018-06-20T07:54:10Z</time>
      </trkpt>
      <trkpt lat="43.50651" lon="6.38977">
        <ele>182.2</ele>
        <time>2018-06-20T07:54:28Z</time>
      </trkpt>
      <trkpt lat="43.50659" lon="6.38984">
        <ele>178.9</ele>
        <time>2018-06-20T07:54:54Z</time>
      </trkpt>
      <trkpt lat="43.50668" lon="6.38987">
        <ele>177.3</ele>
        <time>2018-06-20T07:55:06Z</time>
      </trkpt>
      <trkpt lat="43.50677" lon="6.38986">
        <ele>176.8</ele>
        <time>2018-06-20T07:55:14Z</time>
      </trkpt>
      <trkpt lat="43.50687" lon="6.38988">
        <ele>175.4</ele>
        <time>2018-06-20T07:55:22Z</time>
      </trkpt>
      <trkpt lat="43.50697" lon="6.38988">
        <ele>174.8</ele>
        <time>2018-06-20T07:55:30Z</time>
      </trkpt>
      <trkpt lat="43.50705" lon="6.38983">
        <ele>174.4</ele>
        <time>2018-06-20T07:55:39Z</time>
      </trkpt>
      <trkpt lat="43.50713" lon="6.38977">
        <ele>172.9</ele>
        <time>2018-06-20T07:56:07Z</time>
      </trkpt>
      <trkpt lat="43.50722" lon="6.38977">
        <ele>173.1</ele>
        <time>2018-06-20T07:56:44Z</time>
      </trkpt>
      <trkpt lat="43.50727" lon="6.38966">
        <ele>174.3</ele>
        <time>2018-06-20T07:57:08Z</time>
      </trkpt>
      <trkpt lat="43.50726" lon="6.38954">
        <ele>173.1</ele>
        <time>2018-06-20T07:58:13Z</time>
      </trkpt>
      <trkpt lat="43.50731" lon="6.38943">
        <ele>173</ele>
        <time>2018-06-20T07:58:45Z</time>
      </trkpt>
      <trkpt lat="43.50732" lon="6.38931">
        <ele>172.8</ele>
        <time>2018-06-20T08:00:17Z</time>
      </trkpt>
      <trkpt lat="43.50741" lon="6.38927">
        <ele>173</ele>
        <time>2018-06-20T08:00:30Z</time>
      </trkpt>
      <trkpt lat="43.50732" lon="6.38922">
        <ele>173.7</ele>
        <time>2018-06-20T08:05:44Z</time>
      </trkpt>
      <trkpt lat="43.50735" lon="6.38934">
        <ele>173.2</ele>
        <time>2018-06-20T08:09:09Z</time>
      </trkpt>
      <trkpt lat="43.50742" lon="6.38944">
        <ele>173.2</ele>
        <time>2018-06-20T08:09:31Z</time>
      </trkpt>
      <trkpt lat="43.50738" lon="6.38956">
        <ele>173.8</ele>
        <time>2018-06-20T08:09:44Z</time>
      </trkpt>
      <trkpt lat="43.50735" lon="6.38969">
        <ele>173.2</ele>
        <time>2018-06-20T08:09:55Z</time>
      </trkpt>
      <trkpt lat="43.50735" lon="6.38982">
        <ele>173.5</ele>
        <time>2018-06-20T08:10:10Z</time>
      </trkpt>
      <trkpt lat="43.50726" lon="6.38987">
        <ele>174.1</ele>
        <time>2018-06-20T08:10:19Z</time>
      </trkpt>
      <trkpt lat="43.50718" lon="6.38992">
        <ele>174.4</ele>
        <time>2018-06-20T08:10:24Z</time>
      </trkpt>
      <trkpt lat="43.50709" lon="6.38994">
        <ele>174.6</ele>
        <time>2018-06-20T08:10:29Z</time>
      </trkpt>
      <trkpt lat="43.507" lon="6.38997">
        <ele>175.1</ele>
        <time>2018-06-20T08:10:35Z</time>
      </trkpt>
      <trkpt lat="43.50693" lon="6.39004">
        <ele>175.8</ele>
        <time>2018-06-20T08:10:44Z</time>
      </trkpt>
      <trkpt lat="43.50683" lon="6.39001">
        <ele>176.6</ele>
        <time>2018-06-20T08:10:53Z</time>
      </trkpt>
      <trkpt lat="43.50673" lon="6.38999">
        <ele>177.3</ele>
        <time>2018-06-20T08:11:06Z</time>
      </trkpt>
      <trkpt lat="43.50664" lon="6.39003">
        <ele>178.3</ele>
        <time>2018-06-20T08:11:17Z</time>
      </trkpt>
      <trkpt lat="43.50656" lon="6.39008">
        <ele>179.2</ele>
        <time>2018-06-20T08:11:29Z</time>
      </trkpt>
      <trkpt lat="43.50647" lon="6.39011">
        <ele>180.6</ele>
        <time>2018-06-20T08:11:51Z</time>
      </trkpt>
      <trkpt lat="43.50641" lon="6.39001">
        <ele>182.1</ele>
        <time>2018-06-20T08:12:12Z</time>
      </trkpt>
      <trkpt lat="43.50643" lon="6.38989">
        <ele>182.8</ele>
        <time>2018-06-20T08:12:35Z</time>
      </trkpt>
      <trkpt lat="43.50641" lon="6.38977">
        <ele>183.2</ele>
        <time>2018-06-20T08:12:49Z</time>
      </trkpt>
      <trkpt lat="43.50638" lon="6.38965">
        <ele>183.7</ele>
        <time>2018-06-20T08:13:03Z</time>
      </trkpt>
      <trkpt lat="43.50635" lon="6.38953">
        <ele>183.5</ele>
        <time>2018-06-20T08:13:12Z</time>
      </trkpt>
      <trkpt lat="43.50633" lon="6.38941">
        <ele>184</ele>
        <time>2018-06-20T08:13:24Z</time>
      </trkpt>
      <trkpt lat="43.50627" lon="6.38931">
        <ele>184.6</ele>
        <time>2018-06-20T08:13:33Z</time>
      </trkpt>
      <trkpt lat="43.5062" lon="6.38922">
        <ele>185.5</ele>
        <time>2018-06-20T08:13:44Z</time>
      </trkpt>
      <trkpt lat="43.50611" lon="6.38918">
        <ele>186.4</ele>
        <time>2018-06-20T08:13:55Z</time>
      </trkpt>
      <trkpt lat="43.50602" lon="6.38917">
        <ele>187.4</ele>
        <time>2018-06-20T08:14:07Z</time>
      </trkpt>
      <trkpt lat="43.50593" lon="6.38916">
        <ele>188.5</ele>
        <time>2018-06-20T08:14:17Z</time>
      </trkpt>
      <trkpt lat="43.50583" lon="6.38915">
        <ele>189.2</ele>
        <time>2018-06-20T08:14:26Z</time>
      </trkpt>
      <trkpt lat="43.50574" lon="6.38915">
        <ele>190</ele>
        <time>2018-06-20T08:14:35Z</time>
      </trkpt>
      <trkpt lat="43.50579" lon="6.38926">
        <ele>191.1</ele>
        <time>2018-06-20T08:15:06Z</time>
      </trkpt>
      <trkpt lat="43.50582" lon="6.38938">
        <ele>191.1</ele>
        <time>2018-06-20T08:15:18Z</time>
      </trkpt>
      <trkpt lat="43.50586" lon="6.38949">
        <ele>190.9</ele>
        <time>2018-06-20T08:15:29Z</time>
      </trkpt>
      <trkpt lat="43.50587" lon="6.38963">
        <ele>190.8</ele>
        <time>2018-06-20T08:15:39Z</time>
      </trkpt>
      <trkpt lat="43.50591" lon="6.38975">
        <ele>189.9</ele>
        <time>2018-06-20T08:15:49Z</time>
      </trkpt>
      <trkpt lat="43.50589" lon="6.38988">
        <ele>190</ele>
        <time>2018-06-20T08:16:02Z</time>
      </trkpt>
      <trkpt lat="43.5059" lon="6.39">
        <ele>189.8</ele>
        <time>2018-06-20T08:16:11Z</time>
      </trkpt>
      <trkpt lat="43.5059" lon="6.39013">
        <ele>189.6</ele>
        <time>2018-06-20T08:16:24Z</time>
      </trkpt>
      <trkpt lat="43.50585" lon="6.39024">
        <ele>189.4</ele>
        <time>2018-06-20T08:16:42Z</time>
      </trkpt>
      <trkpt lat="43.50592" lon="6.39033">
        <ele>188.7</ele>
        <time>2018-06-20T08:16:59Z</time>
      </trkpt>
      <trkpt lat="43.50588" lon="6.39044">
        <ele>188.5</ele>
        <time>2018-06-20T08:17:35Z</time>
      </trkpt>
      <trkpt lat="43.50586" lon="6.39057">
        <ele>189.5</ele>
        <time>2018-06-20T08:21:33Z</time>
      </trkpt>
      <trkpt lat="43.50583" lon="6.39069">
        <ele>188.9</ele>
        <time>2018-06-20T08:21:46Z</time>
      </trkpt>
      <trkpt lat="43.50579" lon="6.39081">
        <ele>188.6</ele>
        <time>2018-06-20T08:21:54Z</time>
      </trkpt>
      <trkpt lat="43.50574" lon="6.39092">
        <ele>188.6</ele>
        <time>2018-06-20T08:22:04Z</time>
      </trkpt>
      <trkpt lat="43.50568" lon="6.39102">
        <ele>188.2</ele>
        <time>2018-06-20T08:22:12Z</time>
      </trkpt>
      <trkpt lat="43.50563" lon="6.39112">
        <ele>187.4</ele>
        <time>2018-06-20T08:22:21Z</time>
      </trkpt>
      <trkpt lat="43.50558" lon="6.39123">
        <ele>186.9</ele>
        <time>2018-06-20T08:22:29Z</time>
      </trkpt>
      <trkpt lat="43.50551" lon="6.39133">
        <ele>186.4</ele>
        <time>2018-06-20T08:22:36Z</time>
      </trkpt>
      <trkpt lat="43.50544" lon="6.39143">
        <ele>186.2</ele>
        <time>2018-06-20T08:22:43Z</time>
      </trkpt>
      <trkpt lat="43.50539" lon="6.39154">
        <ele>186.4</ele>
        <time>2018-06-20T08:22:52Z</time>
      </trkpt>
      <trkpt lat="43.50536" lon="6.39167">
        <ele>186.2</ele>
        <time>2018-06-20T08:23:02Z</time>
      </trkpt>
      <trkpt lat="43.5053" lon="6.39177">
        <ele>186.1</ele>
        <time>2018-06-20T08:23:09Z</time>
      </trkpt>
      <trkpt lat="43.50523" lon="6.39186">
        <ele>186</ele>
        <time>2018-06-20T08:23:15Z</time>
      </trkpt>
      <trkpt lat="43.50518" lon="6.39198">
        <ele>185.9</ele>
        <time>2018-06-20T08:23:24Z</time>
      </trkpt>
      <trkpt lat="43.50512" lon="6.39208">
        <ele>185.7</ele>
        <time>2018-06-20T08:23:32Z</time>
      </trkpt>
      <trkpt lat="43.50505" lon="6.39216">
        <ele>185.6</ele>
        <time>2018-06-20T08:23:40Z</time>
      </trkpt>
      <trkpt lat="43.50496" lon="6.39217">
        <ele>185.7</ele>
        <time>2018-06-20T08:23:48Z</time>
      </trkpt>
      <trkpt lat="43.50487" lon="6.39214">
        <ele>185</ele>
        <time>2018-06-20T08:23:58Z</time>
      </trkpt>
      <trkpt lat="43.50485" lon="6.39226">
        <ele>183.7</ele>
        <time>2018-06-20T08:25:27Z</time>
      </trkpt>
      <trkpt lat="43.50487" lon="6.3924">
        <ele>182.7</ele>
        <time>2018-06-20T08:25:41Z</time>
      </trkpt>
      <trkpt lat="43.50483" lon="6.39251">
        <ele>182.3</ele>
        <time>2018-06-20T08:25:51Z</time>
      </trkpt>
      <trkpt lat="43.50481" lon="6.39264">
        <ele>181</ele>
        <time>2018-06-20T08:26:04Z</time>
      </trkpt>
      <trkpt lat="43.50475" lon="6.39273">
        <ele>180</ele>
        <time>2018-06-20T08:26:22Z</time>
      </trkpt>
      <trkpt lat="43.50483" lon="6.39278">
        <ele>179.7</ele>
        <time>2018-06-20T08:26:59Z</time>
      </trkpt>
      <trkpt lat="43.50483" lon="6.39291">
        <ele>178.3</ele>
        <time>2018-06-20T08:27:36Z</time>
      </trkpt>
      <trkpt lat="43.50474" lon="6.39293">
        <ele>177.1</ele>
        <time>2018-06-20T08:27:49Z</time>
      </trkpt>
      <trkpt lat="43.50482" lon="6.39299">
        <ele>175.9</ele>
        <time>2018-06-20T08:28:06Z</time>
      </trkpt>
      <trkpt lat="43.5049" lon="6.39306">
        <ele>175.8</ele>
        <time>2018-06-20T08:28:21Z</time>
      </trkpt>
      <trkpt lat="43.50498" lon="6.39312">
        <ele>175.6</ele>
        <time>2018-06-20T08:28:53Z</time>
      </trkpt>
      <trkpt lat="43.50501" lon="6.39324">
        <ele>175.6</ele>
        <time>2018-06-20T08:29:27Z</time>
      </trkpt>
      <trkpt lat="43.50508" lon="6.39332">
        <ele>175.3</ele>
        <time>2018-06-20T08:29:59Z</time>
      </trkpt>
      <trkpt lat="43.50507" lon="6.39345">
        <ele>174.9</ele>
        <time>2018-06-20T08:32:12Z</time>
      </trkpt>
      <trkpt lat="43.50509" lon="6.39358">
        <ele>174.5</ele>
        <time>2018-06-20T08:32:23Z</time>
      </trkpt>
      <trkpt lat="43.50512" lon="6.39371">
        <ele>174.5</ele>
        <time>2018-06-20T08:32:35Z</time>
      </trkpt>
      <trkpt lat="43.50509" lon="6.39384">
        <ele>174.4</ele>
        <time>2018-06-20T08:32:50Z</time>
      </trkpt>
      <trkpt lat="43.50506" lon="6.39396">
        <ele>174.2</ele>
        <time>2018-06-20T08:33:03Z</time>
      </trkpt>
      <trkpt lat="43.50498" lon="6.39405">
        <ele>174.1</ele>
        <time>2018-06-20T08:33:13Z</time>
      </trkpt>
      <trkpt lat="43.50489" lon="6.39412">
        <ele>174.1</ele>
        <time>2018-06-20T08:33:21Z</time>
      </trkpt>
      <trkpt lat="43.50482" lon="6.3942">
        <ele>174</ele>
        <time>2018-06-20T08:33:30Z</time>
      </trkpt>
      <trkpt lat="43.50478" lon="6.39432">
        <ele>174.2</ele>
        <time>2018-06-20T08:33:41Z</time>
      </trkpt>
      <trkpt lat="43.50476" lon="6.39445">
        <ele>174</ele>
        <time>2018-06-20T08:33:51Z</time>
      </trkpt>
      <trkpt lat="43.50473" lon="6.39457">
        <ele>173.9</ele>
        <time>2018-06-20T08:34:02Z</time>
      </trkpt>
      <trkpt lat="43.5047" lon="6.3947">
        <ele>173.9</ele>
        <time>2018-06-20T08:34:12Z</time>
      </trkpt>
      <trkpt lat="43.5047" lon="6.39483">
        <ele>173.6</ele>
        <time>2018-06-20T08:34:22Z</time>
      </trkpt>
      <trkpt lat="43.50469" lon="6.39496">
        <ele>173</ele>
        <time>2018-06-20T08:34:31Z</time>
      </trkpt>
      <trkpt lat="43.50468" lon="6.39509">
        <ele>172.9</ele>
        <time>2018-06-20T08:34:40Z</time>
      </trkpt>
      <trkpt lat="43.50471" lon="6.39522">
        <ele>172.6</ele>
        <time>2018-06-20T08:34:50Z</time>
      </trkpt>
      <trkpt lat="43.50464" lon="6.39533">
        <ele>172.3</ele>
        <time>2018-06-20T08:34:56Z</time>
      </trkpt>
      <trkpt lat="43.5046" lon="6.39545">
        <ele>172</ele>
        <time>2018-06-20T08:35:04Z</time>
      </trkpt>
      <trkpt lat="43.50456" lon="6.39558">
        <ele>171.7</ele>
        <time>2018-06-20T08:35:13Z</time>
      </trkpt>
      <trkpt lat="43.50452" lon="6.39569">
        <ele>171.8</ele>
        <time>2018-06-20T08:35:21Z</time>
      </trkpt>
      <trkpt lat="43.50445" lon="6.39579">
        <ele>171.6</ele>
        <time>2018-06-20T08:35:29Z</time>
      </trkpt>
      <trkpt lat="43.50439" lon="6.39589">
        <ele>171.7</ele>
        <time>2018-06-20T08:35:37Z</time>
      </trkpt>
      <trkpt lat="43.50436" lon="6.39601">
        <ele>171.5</ele>
        <time>2018-06-20T08:35:49Z</time>
      </trkpt>
      <trkpt lat="43.50434" lon="6.39615">
        <ele>171.6</ele>
        <time>2018-06-20T08:36:00Z</time>
      </trkpt>
      <trkpt lat="43.50432" lon="6.39627">
        <ele>171.4</ele>
        <time>2018-06-20T08:36:10Z</time>
      </trkpt>
      <trkpt lat="43.50432" lon="6.3964">
        <ele>171.4</ele>
        <time>2018-06-20T08:36:23Z</time>
      </trkpt>
      <trkpt lat="43.50433" lon="6.39652">
        <ele>171.3</ele>
        <time>2018-06-20T08:36:32Z</time>
      </trkpt>
      <trkpt lat="43.50436" lon="6.39665">
        <ele>171.3</ele>
        <time>2018-06-20T08:36:40Z</time>
      </trkpt>
      <trkpt lat="43.50435" lon="6.39679">
        <ele>171.6</ele>
        <time>2018-06-20T08:36:50Z</time>
      </trkpt>
      <trkpt lat="43.50431" lon="6.3969">
        <ele>172</ele>
        <time>2018-06-20T08:36:58Z</time>
      </trkpt>
      <trkpt lat="43.50425" lon="6.39699">
        <ele>172.3</ele>
        <time>2018-06-20T08:37:06Z</time>
      </trkpt>
      <trkpt lat="43.50427" lon="6.39712">
        <ele>171.9</ele>
        <time>2018-06-20T08:37:24Z</time>
      </trkpt>
      <trkpt lat="43.5043" lon="6.39724">
        <ele>171.7</ele>
        <time>2018-06-20T08:37:36Z</time>
      </trkpt>
      <trkpt lat="43.50438" lon="6.39731">
        <ele>171.5</ele>
        <time>2018-06-20T08:37:44Z</time>
      </trkpt>
      <trkpt lat="43.50441" lon="6.39744">
        <ele>171.3</ele>
        <time>2018-06-20T08:37:54Z</time>
      </trkpt>
      <trkpt lat="43.50443" lon="6.39757">
        <ele>171</ele>
        <time>2018-06-20T08:38:05Z</time>
      </trkpt>
      <trkpt lat="43.50444" lon="6.3977">
        <ele>170.8</ele>
        <time>2018-06-20T08:38:15Z</time>
      </trkpt>
      <trkpt lat="43.50444" lon="6.39783">
        <ele>170</ele>
        <time>2018-06-20T08:38:29Z</time>
      </trkpt>
      <trkpt lat="43.50444" lon="6.39796">
        <ele>168.7</ele>
        <time>2018-06-20T08:38:43Z</time>
      </trkpt>
      <trkpt lat="43.50446" lon="6.39808">
        <ele>168.5</ele>
        <time>2018-06-20T08:38:56Z</time>
      </trkpt>
      <trkpt lat="43.5045" lon="6.39819">
        <ele>168</ele>
        <time>2018-06-20T08:39:06Z</time>
      </trkpt>
      <trkpt lat="43.50452" lon="6.39831">
        <ele>167.9</ele>
        <time>2018-06-20T08:39:26Z</time>
      </trkpt>
      <trkpt lat="43.50456" lon="6.39843">
        <ele>167.9</ele>
        <time>2018-06-20T08:40:05Z</time>
      </trkpt>
      <trkpt lat="43.50464" lon="6.39851">
        <ele>167.3</ele>
        <time>2018-06-20T08:40:58Z</time>
      </trkpt>
      <trkpt lat="43.50472" lon="6.39856">
        <ele>167.7</ele>
        <time>2018-06-20T08:41:20Z</time>
      </trkpt>
      <trkpt lat="43.50477" lon="6.39867">
        <ele>168</ele>
        <time>2018-06-20T08:42:15Z</time>
      </trkpt>
      <trkpt lat="43.50483" lon="6.39876">
        <ele>166.9</ele>
        <time>2018-06-20T08:42:56Z</time>
      </trkpt>
      <trkpt lat="43.50491" lon="6.39882">
        <ele>166.2</ele>
        <time>2018-06-20T08:43:14Z</time>
      </trkpt>
      <trkpt lat="43.50499" lon="6.39889">
        <ele>165.3</ele>
        <time>2018-06-20T08:43:43Z</time>
      </trkpt>
      <trkpt lat="43.50508" lon="6.39891">
        <ele>165.6</ele>
        <time>2018-06-20T08:47:39Z</time>
      </trkpt>
      <trkpt lat="43.50516" lon="6.39897">
        <ele>165.1</ele>
        <time>2018-06-20T08:48:24Z</time>
      </trkpt>
      <trkpt lat="43.5052" lon="6.39909">
        <ele>165</ele>
        <time>2018-06-20T08:48:38Z</time>
      </trkpt>
      <trkpt lat="43.50524" lon="6.39921">
        <ele>165</ele>
        <time>2018-06-20T08:48:49Z</time>
      </trkpt>
      <trkpt lat="43.50528" lon="6.39932">
        <ele>164.5</ele>
        <time>2018-06-20T08:49:00Z</time>
      </trkpt>
      <trkpt lat="43.50528" lon="6.39945">
        <ele>164.5</ele>
        <time>2018-06-20T08:49:14Z</time>
      </trkpt>
      <trkpt lat="43.50525" lon="6.39957">
        <ele>164.6</ele>
        <time>2018-06-20T08:49:30Z</time>
      </trkpt>
      <trkpt lat="43.50531" lon="6.39965">
        <ele>163.9</ele>
        <time>2018-06-20T08:51:09Z</time>
      </trkpt>
      <trkpt lat="43.50537" lon="6.39975">
        <ele>164.5</ele>
        <time>2018-06-20T08:51:55Z</time>
      </trkpt>
      <trkpt lat="43.50531" lon="6.39985">
        <ele>165.2</ele>
        <time>2018-06-20T08:52:07Z</time>
      </trkpt>
      <trkpt lat="43.50524" lon="6.39994">
        <ele>165.7</ele>
        <time>2018-06-20T08:52:17Z</time>
      </trkpt>
      <trkpt lat="43.50519" lon="6.40004">
        <ele>165.4</ele>
        <time>2018-06-20T08:52:31Z</time>
      </trkpt>
      <trkpt lat="43.5051" lon="6.4001">
        <ele>164.7</ele>
        <time>2018-06-20T08:52:41Z</time>
      </trkpt>
      <trkpt lat="43.50502" lon="6.40015">
        <ele>164.2</ele>
        <time>2018-06-20T08:52:48Z</time>
      </trkpt>
      <trkpt lat="43.50493" lon="6.4002">
        <ele>163.9</ele>
        <time>2018-06-20T08:52:55Z</time>
      </trkpt>
      <trkpt lat="43.50484" lon="6.40026">
        <ele>163.6</ele>
        <time>2018-06-20T08:53:03Z</time>
      </trkpt>
      <trkpt lat="43.50475" lon="6.40034">
        <ele>162.9</ele>
        <time>2018-06-20T08:53:12Z</time>
      </trkpt>
      <trkpt lat="43.50467" lon="6.4004">
        <ele>162.5</ele>
        <time>2018-06-20T08:53:20Z</time>
      </trkpt>
      <trkpt lat="43.50459" lon="6.40047">
        <ele>161.9</ele>
        <time>2018-06-20T08:53:28Z</time>
      </trkpt>
      <trkpt lat="43.50452" lon="6.40055">
        <ele>161</ele>
        <time>2018-06-20T08:53:37Z</time>
      </trkpt>
      <trkpt lat="43.50445" lon="6.40064">
        <ele>160.8</ele>
        <time>2018-06-20T08:53:46Z</time>
      </trkpt>
      <trkpt lat="43.50438" lon="6.40074">
        <ele>159.9</ele>
        <time>2018-06-20T08:53:57Z</time>
      </trkpt>
      <trkpt lat="43.5043" lon="6.40081">
        <ele>159</ele>
        <time>2018-06-20T08:54:04Z</time>
      </trkpt>
      <trkpt lat="43.50422" lon="6.40089">
        <ele>158.1</ele>
        <time>2018-06-20T08:54:14Z</time>
      </trkpt>
      <trkpt lat="43.50415" lon="6.40098">
        <ele>157.3</ele>
        <time>2018-06-20T08:54:24Z</time>
      </trkpt>
      <trkpt lat="43.50406" lon="6.40101">
        <ele>156.5</ele>
        <time>2018-06-20T08:54:31Z</time>
      </trkpt>
      <trkpt lat="43.50396" lon="6.40099">
        <ele>155.4</ele>
        <time>2018-06-20T08:54:41Z</time>
      </trkpt>
      <trkpt lat="43.50387" lon="6.40095">
        <ele>155</ele>
        <time>2018-06-20T08:54:49Z</time>
      </trkpt>
      <trkpt lat="43.5038" lon="6.40087">
        <ele>154.9</ele>
        <time>2018-06-20T08:54:58Z</time>
      </trkpt>
      <trkpt lat="43.50372" lon="6.40079">
        <ele>154.9</ele>
        <time>2018-06-20T08:55:07Z</time>
      </trkpt>
      <trkpt lat="43.50364" lon="6.40072">
        <ele>154.9</ele>
        <time>2018-06-20T08:55:15Z</time>
      </trkpt>
      <trkpt lat="43.50355" lon="6.40065">
        <ele>155</ele>
        <time>2018-06-20T08:55:24Z</time>
      </trkpt>
      <trkpt lat="43.50348" lon="6.40057">
        <ele>154.7</ele>
        <time>2018-06-20T08:55:33Z</time>
      </trkpt>
      <trkpt lat="43.50339" lon="6.40052">
        <ele>154.7</ele>
        <time>2018-06-20T08:55:42Z</time>
      </trkpt>
      <trkpt lat="43.5033" lon="6.40049">
        <ele>154.6</ele>
        <time>2018-06-20T08:55:55Z</time>
      </trkpt>
      <trkpt lat="43.50321" lon="6.40048">
        <ele>154.8</ele>
        <time>2018-06-20T08:56:16Z</time>
      </trkpt>
      <trkpt lat="43.50315" lon="6.40058">
        <ele>154.6</ele>
        <time>2018-06-20T08:56:32Z</time>
      </trkpt>
      <trkpt lat="43.50309" lon="6.40067">
        <ele>154.2</ele>
        <time>2018-06-20T08:56:43Z</time>
      </trkpt>
      <trkpt lat="43.50301" lon="6.40074">
        <ele>154</ele>
        <time>2018-06-20T08:56:50Z</time>
      </trkpt>
      <trkpt lat="43.50293" lon="6.40081">
        <ele>154</ele>
        <time>2018-06-20T08:57:01Z</time>
      </trkpt>
      <trkpt lat="43.50287" lon="6.40091">
        <ele>154.1</ele>
        <time>2018-06-20T08:58:04Z</time>
      </trkpt>
      <trkpt lat="43.50292" lon="6.4008">
        <ele>154.8</ele>
        <time>2018-06-20T08:59:51Z</time>
      </trkpt>
      <trkpt lat="43.50298" lon="6.40069">
        <ele>154.5</ele>
        <time>2018-06-20T09:00:03Z</time>
      </trkpt>
      <trkpt lat="43.50303" lon="6.40057">
        <ele>154.3</ele>
        <time>2018-06-20T09:00:15Z</time>
      </trkpt>
      <trkpt lat="43.50306" lon="6.40045">
        <ele>154.8</ele>
        <time>2018-06-20T09:00:25Z</time>
      </trkpt>
      <trkpt lat="43.50301" lon="6.40034">
        <ele>154.9</ele>
        <time>2018-06-20T09:00:36Z</time>
      </trkpt>
      <trkpt lat="43.50295" lon="6.40025">
        <ele>155.8</ele>
        <time>2018-06-20T09:00:47Z</time>
      </trkpt>
      <trkpt lat="43.50289" lon="6.40016">
        <ele>156.3</ele>
        <time>2018-06-20T09:00:57Z</time>
      </trkpt>
      <trkpt lat="43.5028" lon="6.4001">
        <ele>156.6</ele>
        <time>2018-06-20T09:01:07Z</time>
      </trkpt>
      <trkpt lat="43.50271" lon="6.40008">
        <ele>157.2</ele>
        <time>2018-06-20T09:01:18Z</time>
      </trkpt>
      <trkpt lat="43.50261" lon="6.40007">
        <ele>157.9</ele>
        <time>2018-06-20T09:01:32Z</time>
      </trkpt>
      <trkpt lat="43.50252" lon="6.40011">
        <ele>159.2</ele>
        <time>2018-06-20T09:01:47Z</time>
      </trkpt>
      <trkpt lat="43.50243" lon="6.40011">
        <ele>160.5</ele>
        <time>2018-06-20T09:01:59Z</time>
      </trkpt>
      <trkpt lat="43.50234" lon="6.40011">
        <ele>161.4</ele>
        <time>2018-06-20T09:02:08Z</time>
      </trkpt>
      <trkpt lat="43.50225" lon="6.40009">
        <ele>161.7</ele>
        <time>2018-06-20T09:02:17Z</time>
      </trkpt>
      <trkpt lat="43.50216" lon="6.40005">
        <ele>162</ele>
        <time>2018-06-20T09:02:25Z</time>
      </trkpt>
      <trkpt lat="43.50206" lon="6.40001">
        <ele>162.1</ele>
        <time>2018-06-20T09:02:34Z</time>
      </trkpt>
      <trkpt lat="43.50198" lon="6.39995">
        <ele>161.3</ele>
        <time>2018-06-20T09:02:43Z</time>
      </trkpt>
      <trkpt lat="43.50189" lon="6.39988">
        <ele>160.7</ele>
        <time>2018-06-20T09:02:52Z</time>
      </trkpt>
      <trkpt lat="43.50181" lon="6.39981">
        <ele>160.4</ele>
        <time>2018-06-20T09:03:01Z</time>
      </trkpt>
      <trkpt lat="43.50172" lon="6.39974">
        <ele>160.5</ele>
        <time>2018-06-20T09:03:12Z</time>
      </trkpt>
      <trkpt lat="43.50165" lon="6.39967">
        <ele>160.5</ele>
        <time>2018-06-20T09:03:21Z</time>
      </trkpt>
      <trkpt lat="43.50158" lon="6.39958">
        <ele>160.9</ele>
        <time>2018-06-20T09:03:31Z</time>
      </trkpt>
      <trkpt lat="43.50154" lon="6.39946">
        <ele>161</ele>
        <time>2018-06-20T09:03:39Z</time>
      </trkpt>
      <trkpt lat="43.5015" lon="6.39935">
        <ele>161.3</ele>
        <time>2018-06-20T09:03:47Z</time>
      </trkpt>
      <trkpt lat="43.50148" lon="6.39923">
        <ele>161.7</ele>
        <time>2018-06-20T09:03:56Z</time>
      </trkpt>
      <trkpt lat="43.50148" lon="6.39909">
        <ele>162.2</ele>
        <time>2018-06-20T09:04:05Z</time>
      </trkpt>
      <trkpt lat="43.50148" lon="6.39896">
        <ele>162.3</ele>
        <time>2018-06-20T09:04:14Z</time>
      </trkpt>
      <trkpt lat="43.50147" lon="6.39882">
        <ele>162.8</ele>
        <time>2018-06-20T09:04:25Z</time>
      </trkpt>
      <trkpt lat="43.50147" lon="6.39869">
        <ele>163.5</ele>
        <time>2018-06-20T09:04:36Z</time>
      </trkpt>
      <trkpt lat="43.50147" lon="6.39855">
        <ele>163.8</ele>
        <time>2018-06-20T09:04:47Z</time>
      </trkpt>
      <trkpt lat="43.50148" lon="6.39842">
        <ele>163.9</ele>
        <time>2018-06-20T09:04:57Z</time>
      </trkpt>
      <trkpt lat="43.50149" lon="6.39829">
        <ele>164.6</ele>
        <time>2018-06-20T09:05:06Z</time>
      </trkpt>
      <trkpt lat="43.50149" lon="6.39816">
        <ele>165.2</ele>
        <time>2018-06-20T09:05:16Z</time>
      </trkpt>
      <trkpt lat="43.50149" lon="6.39803">
        <ele>166.3</ele>
        <time>2018-06-20T09:05:28Z</time>
      </trkpt>
      <trkpt lat="43.50149" lon="6.3979">
        <ele>167.2</ele>
        <time>2018-06-20T09:05:38Z</time>
      </trkpt>
      <trkpt lat="43.5015" lon="6.39777">
        <ele>168.5</ele>
        <time>2018-06-20T09:05:49Z</time>
      </trkpt>
      <trkpt lat="43.5015" lon="6.39764">
        <ele>169.5</ele>
        <time>2018-06-20T09:05:59Z</time>
      </trkpt>
      <trkpt lat="43.5015" lon="6.39751">
        <ele>170.3</ele>
        <time>2018-06-20T09:06:10Z</time>
      </trkpt>
      <trkpt lat="43.50151" lon="6.39737">
        <ele>171</ele>
        <time>2018-06-20T09:06:20Z</time>
      </trkpt>
      <trkpt lat="43.50152" lon="6.39725">
        <ele>171.2</ele>
        <time>2018-06-20T09:06:28Z</time>
      </trkpt>
      <trkpt lat="43.50151" lon="6.39711">
        <ele>171.9</ele>
        <time>2018-06-20T09:06:38Z</time>
      </trkpt>
      <trkpt lat="43.50151" lon="6.39698">
        <ele>172.6</ele>
        <time>2018-06-20T09:06:50Z</time>
      </trkpt>
      <trkpt lat="43.5015" lon="6.39685">
        <ele>173.1</ele>
        <time>2018-06-20T09:06:59Z</time>
      </trkpt>
      <trkpt lat="43.5015" lon="6.39672">
        <ele>174</ele>
        <time>2018-06-20T09:07:10Z</time>
      </trkpt>
      <trkpt lat="43.50148" lon="6.39659">
        <ele>174.5</ele>
        <time>2018-06-20T09:07:20Z</time>
      </trkpt>
      <trkpt lat="43.50145" lon="6.39647">
        <ele>175.3</ele>
        <time>2018-06-20T09:07:31Z</time>
      </trkpt>
      <trkpt lat="43.50144" lon="6.39635">
        <ele>176.2</ele>
        <time>2018-06-20T09:07:42Z</time>
      </trkpt>
      <trkpt lat="43.50142" lon="6.39622">
        <ele>177.1</ele>
        <time>2018-06-20T09:07:53Z</time>
      </trkpt>
      <trkpt lat="43.50143" lon="6.39608">
        <ele>177.8</ele>
        <time>2018-06-20T09:08:02Z</time>
      </trkpt>
      <trkpt lat="43.50144" lon="6.39595">
        <ele>178.4</ele>
        <time>2018-06-20T09:08:11Z</time>
      </trkpt>
      <trkpt lat="43.50144" lon="6.39582">
        <ele>179.1</ele>
        <time>2018-06-20T09:08:21Z</time>
      </trkpt>
      <trkpt lat="43.50144" lon="6.39569">
        <ele>179.7</ele>
        <time>2018-06-20T09:08:32Z</time>
      </trkpt>
      <trkpt lat="43.50145" lon="6.39556">
        <ele>180.1</ele>
        <time>2018-06-20T09:08:41Z</time>
      </trkpt>
      <trkpt lat="43.50143" lon="6.39544">
        <ele>180.6</ele>
        <time>2018-06-20T09:08:53Z</time>
      </trkpt>
      <trkpt lat="43.50141" lon="6.39531">
        <ele>181.1</ele>
        <time>2018-06-20T09:09:07Z</time>
      </trkpt>
      <trkpt lat="43.5014" lon="6.39519">
        <ele>181.6</ele>
        <time>2018-06-20T09:09:18Z</time>
      </trkpt>
      <trkpt lat="43.50138" lon="6.39506">
        <ele>182.4</ele>
        <time>2018-06-20T09:09:32Z</time>
      </trkpt>
      <trkpt lat="43.50136" lon="6.39493">
        <ele>183</ele>
        <time>2018-06-20T09:09:41Z</time>
      </trkpt>
      <trkpt lat="43.50133" lon="6.39481">
        <ele>183.6</ele>
        <time>2018-06-20T09:09:49Z</time>
      </trkpt>
      <trkpt lat="43.5013" lon="6.39469">
        <ele>184.3</ele>
        <time>2018-06-20T09:09:59Z</time>
      </trkpt>
      <trkpt lat="43.50128" lon="6.39456">
        <ele>185.1</ele>
        <time>2018-06-20T09:10:10Z</time>
      </trkpt>
      <trkpt lat="43.50125" lon="6.39443">
        <ele>186.2</ele>
        <time>2018-06-20T09:10:23Z</time>
      </trkpt>
      <trkpt lat="43.50123" lon="6.3943">
        <ele>187.1</ele>
        <time>2018-06-20T09:10:37Z</time>
      </trkpt>
      <trkpt lat="43.50124" lon="6.39418">
        <ele>187.6</ele>
        <time>2018-06-20T09:10:53Z</time>
      </trkpt>
      <trkpt lat="43.5013" lon="6.39426">
        <ele>188.5</ele>
        <time>2018-06-20T09:12:18Z</time>
      </trkpt>
      <trkpt lat="43.50123" lon="6.39418">
        <ele>189.2</ele>
        <time>2018-06-20T09:12:58Z</time>
      </trkpt>
      <trkpt lat="43.50118" lon="6.39408">
        <ele>189.8</ele>
        <time>2018-06-20T09:13:10Z</time>
      </trkpt>
      <trkpt lat="43.50115" lon="6.39395">
        <ele>190.5</ele>
        <time>2018-06-20T09:13:22Z</time>
      </trkpt>
      <trkpt lat="43.50116" lon="6.39382">
        <ele>191.2</ele>
        <time>2018-06-20T09:13:31Z</time>
      </trkpt>
      <trkpt lat="43.50118" lon="6.3937">
        <ele>192</ele>
        <time>2018-06-20T09:13:40Z</time>
      </trkpt>
      <trkpt lat="43.50119" lon="6.39356">
        <ele>193</ele>
        <time>2018-06-20T09:13:51Z</time>
      </trkpt>
      <trkpt lat="43.50121" lon="6.39344">
        <ele>193.4</ele>
        <time>2018-06-20T09:14:01Z</time>
      </trkpt>
      <trkpt lat="43.50124" lon="6.39333">
        <ele>193.1</ele>
        <time>2018-06-20T09:14:10Z</time>
      </trkpt>
      <trkpt lat="43.50129" lon="6.39321">
        <ele>192.7</ele>
        <time>2018-06-20T09:14:20Z</time>
      </trkpt>
      <trkpt lat="43.50134" lon="6.39309">
        <ele>192.3</ele>
        <time>2018-06-20T09:14:32Z</time>
      </trkpt>
      <trkpt lat="43.50139" lon="6.39298">
        <ele>192</ele>
        <time>2018-06-20T09:14:40Z</time>
      </trkpt>
      <trkpt lat="43.50142" lon="6.39287">
        <ele>191.9</ele>
        <time>2018-06-20T09:14:50Z</time>
      </trkpt>
      <trkpt lat="43.50146" lon="6.39275">
        <ele>191.8</ele>
        <time>2018-06-20T09:14:59Z</time>
      </trkpt>
      <trkpt lat="43.50149" lon="6.39263">
        <ele>191.9</ele>
        <time>2018-06-20T09:15:06Z</time>
      </trkpt>
      <trkpt lat="43.50151" lon="6.39251">
        <ele>191.9</ele>
        <time>2018-06-20T09:15:13Z</time>
      </trkpt>
      <trkpt lat="43.50152" lon="6.39238">
        <ele>191.8</ele>
        <time>2018-06-20T09:15:23Z</time>
      </trkpt>
      <trkpt lat="43.50154" lon="6.39226">
        <ele>191.6</ele>
        <time>2018-06-20T09:15:31Z</time>
      </trkpt>
      <trkpt lat="43.50156" lon="6.39214">
        <ele>191.9</ele>
        <time>2018-06-20T09:15:40Z</time>
      </trkpt>
      <trkpt lat="43.50159" lon="6.39201">
        <ele>192.4</ele>
        <time>2018-06-20T09:15:49Z</time>
      </trkpt>
      <trkpt lat="43.50159" lon="6.39188">
        <ele>193.2</ele>
        <time>2018-06-20T09:16:00Z</time>
      </trkpt>
      <trkpt lat="43.5016" lon="6.39175">
        <ele>193.2</ele>
        <time>2018-06-20T09:16:10Z</time>
      </trkpt>
      <trkpt lat="43.50161" lon="6.39162">
        <ele>193.4</ele>
        <time>2018-06-20T09:16:20Z</time>
      </trkpt>
      <trkpt lat="43.50163" lon="6.39149">
        <ele>193.6</ele>
        <time>2018-06-20T09:16:29Z</time>
      </trkpt>
      <trkpt lat="43.50166" lon="6.39136">
        <ele>193.7</ele>
        <time>2018-06-20T09:16:36Z</time>
      </trkpt>
      <trkpt lat="43.50169" lon="6.39122">
        <ele>193.7</ele>
        <time>2018-06-20T09:16:43Z</time>
      </trkpt>
      <trkpt lat="43.50173" lon="6.39109">
        <ele>193.1</ele>
        <time>2018-06-20T09:16:50Z</time>
      </trkpt>
      <trkpt lat="43.50177" lon="6.39096">
        <ele>192.6</ele>
        <time>2018-06-20T09:16:57Z</time>
      </trkpt>
      <trkpt lat="43.50179" lon="6.39084">
        <ele>192.1</ele>
        <time>2018-06-20T09:17:06Z</time>
      </trkpt>
      <trkpt lat="43.5018" lon="6.3907">
        <ele>191.4</ele>
        <time>2018-06-20T09:17:16Z</time>
      </trkpt>
      <trkpt lat="43.50181" lon="6.39058">
        <ele>190.5</ele>
        <time>2018-06-20T09:17:27Z</time>
      </trkpt>
      <trkpt lat="43.50184" lon="6.39046">
        <ele>190.1</ele>
        <time>2018-06-20T09:17:36Z</time>
      </trkpt>
      <trkpt lat="43.50186" lon="6.39033">
        <ele>189.8</ele>
        <time>2018-06-20T09:17:45Z</time>
      </trkpt>
      <trkpt lat="43.50188" lon="6.3902">
        <ele>189.3</ele>
        <time>2018-06-20T09:17:54Z</time>
      </trkpt>
      <trkpt lat="43.50191" lon="6.39008">
        <ele>189</ele>
        <time>2018-06-20T09:18:03Z</time>
      </trkpt>
      <trkpt lat="43.50193" lon="6.38996">
        <ele>188.6</ele>
        <time>2018-06-20T09:18:12Z</time>
      </trkpt>
      <trkpt lat="43.50194" lon="6.38983">
        <ele>188.1</ele>
        <time>2018-06-20T09:18:23Z</time>
      </trkpt>
      <trkpt lat="43.50196" lon="6.3897">
        <ele>187.6</ele>
        <time>2018-06-20T09:18:33Z</time>
      </trkpt>
      <trkpt lat="43.50198" lon="6.38957">
        <ele>187.5</ele>
        <time>2018-06-20T09:18:43Z</time>
      </trkpt>
      <trkpt lat="43.50201" lon="6.38944">
        <ele>187.4</ele>
        <time>2018-06-20T09:18:54Z</time>
      </trkpt>
      <trkpt lat="43.50202" lon="6.3893">
        <ele>187.1</ele>
        <time>2018-06-20T09:19:04Z</time>
      </trkpt>
      <trkpt lat="43.50205" lon="6.38917">
        <ele>186.8</ele>
        <time>2018-06-20T09:19:14Z</time>
      </trkpt>
      <trkpt lat="43.50206" lon="6.38904">
        <ele>186.6</ele>
        <time>2018-06-20T09:19:23Z</time>
      </trkpt>
      <trkpt lat="43.50207" lon="6.38892">
        <ele>186.4</ele>
        <time>2018-06-20T09:19:34Z</time>
      </trkpt>
      <trkpt lat="43.50211" lon="6.3888">
        <ele>186.6</ele>
        <time>2018-06-20T09:19:44Z</time>
      </trkpt>
      <trkpt lat="43.50212" lon="6.38867">
        <ele>186.9</ele>
        <time>2018-06-20T09:19:52Z</time>
      </trkpt>
      <trkpt lat="43.50213" lon="6.38854">
        <ele>187.3</ele>
        <time>2018-06-20T09:20:03Z</time>
      </trkpt>
      <trkpt lat="43.50216" lon="6.38842">
        <ele>187.6</ele>
        <time>2018-06-20T09:20:13Z</time>
      </trkpt>
      <trkpt lat="43.50217" lon="6.3883">
        <ele>189.3</ele>
        <time>2018-06-20T09:21:01Z</time>
      </trkpt>
      <trkpt lat="43.50226" lon="6.3883">
        <ele>189.3</ele>
        <time>2018-06-20T09:21:12Z</time>
      </trkpt>
      <trkpt lat="43.50236" lon="6.3883">
        <ele>189.3</ele>
        <time>2018-06-20T09:21:24Z</time>
      </trkpt>
      <trkpt lat="43.50246" lon="6.38828">
        <ele>189.6</ele>
        <time>2018-06-20T09:21:35Z</time>
      </trkpt>
      <trkpt lat="43.50256" lon="6.3883">
        <ele>189.9</ele>
        <time>2018-06-20T09:21:42Z</time>
      </trkpt>
      <trkpt lat="43.50265" lon="6.38832">
        <ele>190</ele>
        <time>2018-06-20T09:21:49Z</time>
      </trkpt>
      <trkpt lat="43.50274" lon="6.38834">
        <ele>190.7</ele>
        <time>2018-06-20T09:21:57Z</time>
      </trkpt>
      <trkpt lat="43.50284" lon="6.38836">
        <ele>190.7</ele>
        <time>2018-06-20T09:22:07Z</time>
      </trkpt>
      <trkpt lat="43.50293" lon="6.38835">
        <ele>191</ele>
        <time>2018-06-20T09:22:20Z</time>
      </trkpt>
      <trkpt lat="43.50302" lon="6.38837">
        <ele>191.3</ele>
        <time>2018-06-20T09:22:30Z</time>
      </trkpt>
      <trkpt lat="43.50311" lon="6.38839">
        <ele>191.7</ele>
        <time>2018-06-20T09:22:40Z</time>
      </trkpt>
      <trkpt lat="43.5032" lon="6.3884">
        <ele>192.3</ele>
        <time>2018-06-20T09:22:49Z</time>
      </trkpt>
      <trkpt lat="43.50329" lon="6.38841">
        <ele>193.2</ele>
        <time>2018-06-20T09:22:59Z</time>
      </trkpt>
      <trkpt lat="43.50338" lon="6.38841">
        <ele>193.4</ele>
        <time>2018-06-20T09:23:06Z</time>
      </trkpt>
      <trkpt lat="43.50347" lon="6.3884">
        <ele>193.8</ele>
        <time>2018-06-20T09:23:13Z</time>
      </trkpt>
      <trkpt lat="43.50357" lon="6.38841">
        <ele>194.2</ele>
        <time>2018-06-20T09:23:21Z</time>
      </trkpt>
      <trkpt lat="43.50367" lon="6.3884">
        <ele>194.3</ele>
        <time>2018-06-20T09:23:29Z</time>
      </trkpt>
      <trkpt lat="43.50376" lon="6.3884">
        <ele>194.2</ele>
        <time>2018-06-20T09:23:37Z</time>
      </trkpt>
      <trkpt lat="43.50385" lon="6.38838">
        <ele>194.4</ele>
        <time>2018-06-20T09:23:45Z</time>
      </trkpt>
      <trkpt lat="43.50394" lon="6.38836">
        <ele>194.5</ele>
        <time>2018-06-20T09:23:53Z</time>
      </trkpt>
      <trkpt lat="43.50403" lon="6.38832">
        <ele>194.9</ele>
        <time>2018-06-20T09:24:02Z</time>
      </trkpt>
      <trkpt lat="43.50412" lon="6.38827">
        <ele>194.7</ele>
        <time>2018-06-20T09:24:11Z</time>
      </trkpt>
      <trkpt lat="43.50421" lon="6.38824">
        <ele>194.3</ele>
        <time>2018-06-20T09:24:19Z</time>
      </trkpt>
      <trkpt lat="43.50431" lon="6.38821">
        <ele>193.9</ele>
        <time>2018-06-20T09:24:30Z</time>
      </trkpt>
      <trkpt lat="43.50441" lon="6.38821">
        <ele>193.6</ele>
        <time>2018-06-20T09:24:38Z</time>
      </trkpt>
      <trkpt lat="43.50449" lon="6.38813">
        <ele>193.5</ele>
        <time>2018-06-20T09:24:50Z</time>
      </trkpt>
      <trkpt lat="43.50454" lon="6.38803">
        <ele>193.5</ele>
        <time>2018-06-20T09:25:01Z</time>
      </trkpt>
      <trkpt lat="43.50458" lon="6.38791">
        <ele>193.7</ele>
        <time>2018-06-20T09:25:11Z</time>
      </trkpt>
      <trkpt lat="43.50462" lon="6.38779">
        <ele>193.9</ele>
        <time>2018-06-20T09:25:23Z</time>
      </trkpt>
      <trkpt lat="43.50459" lon="6.38767">
        <ele>195.3</ele>
        <time>2018-06-20T09:26:09Z</time>
      </trkpt>
      <trkpt lat="43.50449" lon="6.3877">
        <ele>196</ele>
        <time>2018-06-20T09:26:30Z</time>
      </trkpt>
      <trkpt lat="43.50439" lon="6.38772">
        <ele>196.6</ele>
        <time>2018-06-20T09:26:40Z</time>
      </trkpt>
      <trkpt lat="43.5043" lon="6.38777">
        <ele>196.8</ele>
        <time>2018-06-20T09:26:52Z</time>
      </trkpt>
      <trkpt lat="43.50421" lon="6.38777">
        <ele>197.3</ele>
        <time>2018-06-20T09:27:02Z</time>
      </trkpt>
      <trkpt lat="43.50412" lon="6.38781">
        <ele>197.5</ele>
        <time>2018-06-20T09:27:14Z</time>
      </trkpt>
      <trkpt lat="43.50402" lon="6.38781">
        <ele>197.8</ele>
        <time>2018-06-20T09:27:24Z</time>
      </trkpt>
      <trkpt lat="43.50392" lon="6.38783">
        <ele>198.3</ele>
        <time>2018-06-20T09:27:32Z</time>
      </trkpt>
      <trkpt lat="43.50383" lon="6.38781">
        <ele>198.8</ele>
        <time>2018-06-20T09:27:41Z</time>
      </trkpt>
      <trkpt lat="43.50375" lon="6.38773">
        <ele>199.7</ele>
        <time>2018-06-20T09:27:52Z</time>
      </trkpt>
      <trkpt lat="43.5037" lon="6.38763">
        <ele>201.1</ele>
        <time>2018-06-20T09:28:18Z</time>
      </trkpt>
      <trkpt lat="43.50368" lon="6.38751">
        <ele>202.2</ele>
        <time>2018-06-20T09:28:41Z</time>
      </trkpt>
      <trkpt lat="43.5037" lon="6.38738">
        <ele>203.1</ele>
        <time>2018-06-20T09:28:53Z</time>
      </trkpt>
      <trkpt lat="43.50371" lon="6.38725">
        <ele>204.3</ele>
        <time>2018-06-20T09:29:06Z</time>
      </trkpt>
      <trkpt lat="43.50372" lon="6.38712">
        <ele>206.2</ele>
        <time>2018-06-20T09:29:20Z</time>
      </trkpt>
      <trkpt lat="43.50372" lon="6.387">
        <ele>208.1</ele>
        <time>2018-06-20T09:29:35Z</time>
      </trkpt>
      <trkpt lat="43.50372" lon="6.38687">
        <ele>209.6</ele>
        <time>2018-06-20T09:29:57Z</time>
      </trkpt>
      <trkpt lat="43.50375" lon="6.38675">
        <ele>210.8</ele>
        <time>2018-06-20T09:30:18Z</time>
      </trkpt>
      <trkpt lat="43.50376" lon="6.38663">
        <ele>213</ele>
        <time>2018-06-20T09:30:38Z</time>
      </trkpt>
      <trkpt lat="43.50378" lon="6.3865">
        <ele>214.4</ele>
        <time>2018-06-20T09:31:28Z</time>
      </trkpt>
      <trkpt lat="43.50379" lon="6.38638">
        <ele>217.6</ele>
        <time>2018-06-20T09:31:55Z</time>
      </trkpt>
      <trkpt lat="43.50382" lon="6.38625">
        <ele>219.5</ele>
        <time>2018-06-20T09:32:13Z</time>
      </trkpt>
      <trkpt lat="43.50387" lon="6.38615">
        <ele>221.3</ele>
        <time>2018-06-20T09:32:28Z</time>
      </trkpt>
      <trkpt lat="43.50394" lon="6.38607">
        <ele>222</ele>
        <time>2018-06-20T09:32:39Z</time>
      </trkpt>
      <trkpt lat="43.50396" lon="6.38594">
        <ele>222.8</ele>
        <time>2018-06-20T09:33:00Z</time>
      </trkpt>
      <trkpt lat="43.50396" lon="6.38581">
        <ele>223.4</ele>
        <time>2018-06-20T09:33:16Z</time>
      </trkpt>
      <trkpt lat="43.50395" lon="6.38568">
        <ele>224.3</ele>
        <time>2018-06-20T09:33:29Z</time>
      </trkpt>
      <trkpt lat="43.50397" lon="6.38556">
        <ele>225.5</ele>
        <time>2018-06-20T09:33:41Z</time>
      </trkpt>
      <trkpt lat="43.504" lon="6.38544">
        <ele>226.4</ele>
        <time>2018-06-20T09:33:51Z</time>
      </trkpt>
      <trkpt lat="43.50401" lon="6.38532">
        <ele>227.7</ele>
        <time>2018-06-20T09:34:06Z</time>
      </trkpt>
      <trkpt lat="43.50404" lon="6.38519">
        <ele>228.7</ele>
        <time>2018-06-20T09:34:20Z</time>
      </trkpt>
      <trkpt lat="43.50403" lon="6.38506">
        <ele>230.4</ele>
        <time>2018-06-20T09:34:42Z</time>
      </trkpt>
      <trkpt lat="43.50406" lon="6.38494">
        <ele>231</ele>
        <time>2018-06-20T09:34:53Z</time>
      </trkpt>
      <trkpt lat="43.50407" lon="6.38481">
        <ele>231.8</ele>
        <time>2018-06-20T09:35:09Z</time>
      </trkpt>
      <trkpt lat="43.50406" lon="6.38469">
        <ele>232.5</ele>
        <time>2018-06-20T09:35:23Z</time>
      </trkpt>
      <trkpt lat="43.50406" lon="6.38455">
        <ele>233</ele>
        <time>2018-06-20T09:35:37Z</time>
      </trkpt>
      <trkpt lat="43.50407" lon="6.38443">
        <ele>233.7</ele>
        <time>2018-06-20T09:36:47Z</time>
      </trkpt>
      <trkpt lat="43.50409" lon="6.3843">
        <ele>234.5</ele>
        <time>2018-06-20T09:38:48Z</time>
      </trkpt>
      <trkpt lat="43.5041" lon="6.38418">
        <ele>235.2</ele>
        <time>2018-06-20T09:39:06Z</time>
      </trkpt>
      <trkpt lat="43.50409" lon="6.38405">
        <ele>234.7</ele>
        <time>2018-06-20T09:39:21Z</time>
      </trkpt>
      <trkpt lat="43.5041" lon="6.38392">
        <ele>234.6</ele>
        <time>2018-06-20T09:39:34Z</time>
      </trkpt>
      <trkpt lat="43.50411" lon="6.38379">
        <ele>234.1</ele>
        <time>2018-06-20T09:39:48Z</time>
      </trkpt>
      <trkpt lat="43.50409" lon="6.38368">
        <ele>233.3</ele>
        <time>2018-06-20T09:40:04Z</time>
      </trkpt>
      <trkpt lat="43.50406" lon="6.38355">
        <ele>233.3</ele>
        <time>2018-06-20T09:40:18Z</time>
      </trkpt>
      <trkpt lat="43.50408" lon="6.38342">
        <ele>233</ele>
        <time>2018-06-20T09:40:25Z</time>
      </trkpt>
      <trkpt lat="43.5041" lon="6.38328">
        <ele>232.9</ele>
        <time>2018-06-20T09:40:33Z</time>
      </trkpt>
      <trkpt lat="43.50412" lon="6.38315">
        <ele>232.8</ele>
        <time>2018-06-20T09:40:40Z</time>
      </trkpt>
      <trkpt lat="43.50414" lon="6.38302">
        <ele>232.4</ele>
        <time>2018-06-20T09:40:50Z</time>
      </trkpt>
      <trkpt lat="43.50416" lon="6.38289">
        <ele>232.5</ele>
        <time>2018-06-20T09:41:04Z</time>
      </trkpt>
      <trkpt lat="43.50408" lon="6.38281">
        <ele>233.9</ele>
        <time>2018-06-20T09:41:44Z</time>
      </trkpt>
      <trkpt lat="43.50399" lon="6.3828">
        <ele>234.8</ele>
        <time>2018-06-20T09:41:59Z</time>
      </trkpt>
      <trkpt lat="43.50391" lon="6.38273">
        <ele>235.8</ele>
        <time>2018-06-20T09:42:23Z</time>
      </trkpt>
      <trkpt lat="43.50382" lon="6.38279">
        <ele>236</ele>
        <time>2018-06-20T09:42:38Z</time>
      </trkpt>
      <trkpt lat="43.50373" lon="6.38278">
        <ele>236.1</ele>
        <time>2018-06-20T09:42:48Z</time>
      </trkpt>
      <trkpt lat="43.50363" lon="6.38277">
        <ele>236.3</ele>
        <time>2018-06-20T09:42:56Z</time>
      </trkpt>
      <trkpt lat="43.50355" lon="6.38272">
        <ele>236.5</ele>
        <time>2018-06-20T09:43:07Z</time>
      </trkpt>
      <trkpt lat="43.50347" lon="6.38265">
        <ele>236.7</ele>
        <time>2018-06-20T09:43:16Z</time>
      </trkpt>
      <trkpt lat="43.5034" lon="6.38257">
        <ele>236.8</ele>
        <time>2018-06-20T09:43:25Z</time>
      </trkpt>
      <trkpt lat="43.50333" lon="6.38249">
        <ele>236.7</ele>
        <time>2018-06-20T09:43:33Z</time>
      </trkpt>
      <trkpt lat="43.50325" lon="6.38241">
        <ele>236.6</ele>
        <time>2018-06-20T09:43:46Z</time>
      </trkpt>
      <trkpt lat="43.50319" lon="6.38231">
        <ele>236.5</ele>
        <time>2018-06-20T09:43:55Z</time>
      </trkpt>
      <trkpt lat="43.50313" lon="6.38222">
        <ele>237.3</ele>
        <time>2018-06-20T09:44:06Z</time>
      </trkpt>
      <trkpt lat="43.50307" lon="6.38211">
        <ele>237.6</ele>
        <time>2018-06-20T09:44:15Z</time>
      </trkpt>
      <trkpt lat="43.50302" lon="6.382">
        <ele>237.8</ele>
        <time>2018-06-20T09:44:24Z</time>
      </trkpt>
      <trkpt lat="43.50298" lon="6.38188">
        <ele>237.3</ele>
        <time>2018-06-20T09:44:36Z</time>
      </trkpt>
      <trkpt lat="43.50294" lon="6.38176">
        <ele>237.3</ele>
        <time>2018-06-20T09:44:46Z</time>
      </trkpt>
      <trkpt lat="43.50289" lon="6.38165">
        <ele>237.5</ele>
        <time>2018-06-20T09:44:55Z</time>
      </trkpt>
      <trkpt lat="43.50287" lon="6.38152">
        <ele>237.9</ele>
        <time>2018-06-20T09:45:06Z</time>
      </trkpt>
      <trkpt lat="43.50284" lon="6.3814">
        <ele>238.4</ele>
        <time>2018-06-20T09:45:15Z</time>
      </trkpt>
      <trkpt lat="43.50279" lon="6.3813">
        <ele>238.2</ele>
        <time>2018-06-20T09:45:24Z</time>
      </trkpt>
      <trkpt lat="43.50275" lon="6.38118">
        <ele>238.1</ele>
        <time>2018-06-20T09:45:35Z</time>
      </trkpt>
      <trkpt lat="43.50272" lon="6.38105">
        <ele>238.4</ele>
        <time>2018-06-20T09:45:46Z</time>
      </trkpt>
      <trkpt lat="43.50271" lon="6.38092">
        <ele>238.7</ele>
        <time>2018-06-20T09:45:54Z</time>
      </trkpt>
      <trkpt lat="43.50267" lon="6.3808">
        <ele>239.2</ele>
        <time>2018-06-20T09:46:05Z</time>
      </trkpt>
      <trkpt lat="43.50268" lon="6.38067">
        <ele>240.2</ele>
        <time>2018-06-20T09:46:22Z</time>
      </trkpt>
      <trkpt lat="43.50264" lon="6.38056">
        <ele>240.7</ele>
        <time>2018-06-20T09:46:36Z</time>
      </trkpt>
      <trkpt lat="43.50264" lon="6.38042">
        <ele>240.6</ele>
        <time>2018-06-20T09:46:46Z</time>
      </trkpt>
      <trkpt lat="43.50263" lon="6.3803">
        <ele>240.5</ele>
        <time>2018-06-20T09:47:07Z</time>
      </trkpt>
      <trkpt lat="43.50258" lon="6.38018">
        <ele>239.9</ele>
        <time>2018-06-20T09:47:20Z</time>
      </trkpt>
      <trkpt lat="43.50256" lon="6.38005">
        <ele>239.3</ele>
        <time>2018-06-20T09:47:35Z</time>
      </trkpt>
      <trkpt lat="43.50254" lon="6.37993">
        <ele>239.2</ele>
        <time>2018-06-20T09:47:53Z</time>
      </trkpt>
      <trkpt lat="43.50254" lon="6.37979">
        <ele>239.5</ele>
        <time>2018-06-20T09:48:03Z</time>
      </trkpt>
      <trkpt lat="43.50257" lon="6.37967">
        <ele>240.1</ele>
        <time>2018-06-20T09:48:16Z</time>
      </trkpt>
      <trkpt lat="43.50248" lon="6.37962">
        <ele>240.8</ele>
        <time>2018-06-20T09:48:28Z</time>
      </trkpt>
      <trkpt lat="43.5024" lon="6.37953">
        <ele>242.1</ele>
        <time>2018-06-20T09:48:42Z</time>
      </trkpt>
      <trkpt lat="43.50232" lon="6.37948">
        <ele>243.2</ele>
        <time>2018-06-20T09:48:55Z</time>
      </trkpt>
      <trkpt lat="43.50227" lon="6.37938">
        <ele>245.1</ele>
        <time>2018-06-20T09:49:13Z</time>
      </trkpt>
      <trkpt lat="43.50222" lon="6.37926">
        <ele>246.1</ele>
        <time>2018-06-20T09:49:25Z</time>
      </trkpt>
      <trkpt lat="43.50216" lon="6.37917">
        <ele>246.7</ele>
        <time>2018-06-20T09:49:34Z</time>
      </trkpt>
      <trkpt lat="43.5021" lon="6.37907">
        <ele>247.2</ele>
        <time>2018-06-20T09:49:52Z</time>
      </trkpt>
      <trkpt lat="43.50204" lon="6.37898">
        <ele>247.7</ele>
        <time>2018-06-20T09:50:06Z</time>
      </trkpt>
      <trkpt lat="43.50198" lon="6.37889">
        <ele>248.3</ele>
        <time>2018-06-20T09:50:20Z</time>
      </trkpt>
      <trkpt lat="43.50192" lon="6.37879">
        <ele>249.1</ele>
        <time>2018-06-20T09:50:34Z</time>
      </trkpt>
      <trkpt lat="43.50195" lon="6.37865">
        <ele>249.5</ele>
        <time>2018-06-20T09:50:44Z</time>
      </trkpt>
      <trkpt lat="43.50197" lon="6.37853">
        <ele>250</ele>
        <time>2018-06-20T09:50:52Z</time>
      </trkpt>
      <trkpt lat="43.50196" lon="6.3784">
        <ele>250.1</ele>
        <time>2018-06-20T09:51:03Z</time>
      </trkpt>
      <trkpt lat="43.50191" lon="6.37829">
        <ele>250.2</ele>
        <time>2018-06-20T09:51:19Z</time>
      </trkpt>
      <trkpt lat="43.50188" lon="6.37817">
        <ele>250.3</ele>
        <time>2018-06-20T09:51:32Z</time>
      </trkpt>
      <trkpt lat="43.50186" lon="6.37804">
        <ele>250.5</ele>
        <time>2018-06-20T09:51:45Z</time>
      </trkpt>
      <trkpt lat="43.50187" lon="6.37792">
        <ele>250.7</ele>
        <time>2018-06-20T09:51:54Z</time>
      </trkpt>
      <trkpt lat="43.50187" lon="6.37778">
        <ele>250.9</ele>
        <time>2018-06-20T09:52:02Z</time>
      </trkpt>
      <trkpt lat="43.50188" lon="6.37764">
        <ele>250.9</ele>
        <time>2018-06-20T09:52:14Z</time>
      </trkpt>
      <trkpt lat="43.50187" lon="6.37752">
        <ele>251.1</ele>
        <time>2018-06-20T09:52:25Z</time>
      </trkpt>
      <trkpt lat="43.50184" lon="6.3774">
        <ele>251.6</ele>
        <time>2018-06-20T09:52:38Z</time>
      </trkpt>
      <trkpt lat="43.50185" lon="6.37728">
        <ele>252.4</ele>
        <time>2018-06-20T09:52:51Z</time>
      </trkpt>
      <trkpt lat="43.50186" lon="6.37715">
        <ele>253.3</ele>
        <time>2018-06-20T09:53:04Z</time>
      </trkpt>
      <trkpt lat="43.50183" lon="6.37703">
        <ele>254.5</ele>
        <time>2018-06-20T09:53:20Z</time>
      </trkpt>
      <trkpt lat="43.50181" lon="6.37691">
        <ele>255.5</ele>
        <time>2018-06-20T09:53:30Z</time>
      </trkpt>
      <trkpt lat="43.50177" lon="6.37679">
        <ele>256.5</ele>
        <time>2018-06-20T09:53:42Z</time>
      </trkpt>
      <trkpt lat="43.50174" lon="6.37667">
        <ele>257.2</ele>
        <time>2018-06-20T09:53:56Z</time>
      </trkpt>
      <trkpt lat="43.50167" lon="6.37658">
        <ele>257.5</ele>
        <time>2018-06-20T09:54:09Z</time>
      </trkpt>
      <trkpt lat="43.50161" lon="6.37649">
        <ele>257.7</ele>
        <time>2018-06-20T09:54:20Z</time>
      </trkpt>
      <trkpt lat="43.50156" lon="6.37639">
        <ele>258.2</ele>
        <time>2018-06-20T09:54:34Z</time>
      </trkpt>
      <trkpt lat="43.50154" lon="6.37627">
        <ele>258.7</ele>
        <time>2018-06-20T09:54:44Z</time>
      </trkpt>
      <trkpt lat="43.50154" lon="6.37614">
        <ele>259.5</ele>
        <time>2018-06-20T09:55:00Z</time>
      </trkpt>
      <trkpt lat="43.50152" lon="6.37602">
        <ele>259.8</ele>
        <time>2018-06-20T09:57:39Z</time>
      </trkpt>
      <trkpt lat="43.50143" lon="6.37596">
        <ele>259.6</ele>
        <time>2018-06-20T09:58:18Z</time>
      </trkpt>
      <trkpt lat="43.50135" lon="6.37588">
        <ele>259.8</ele>
        <time>2018-06-20T09:58:31Z</time>
      </trkpt>
      <trkpt lat="43.50128" lon="6.3758">
        <ele>260</ele>
        <time>2018-06-20T09:58:45Z</time>
      </trkpt>
      <trkpt lat="43.50122" lon="6.37571">
        <ele>260.3</ele>
        <time>2018-06-20T09:58:59Z</time>
      </trkpt>
      <trkpt lat="43.50117" lon="6.3756">
        <ele>260.3</ele>
        <time>2018-06-20T09:59:10Z</time>
      </trkpt>
      <trkpt lat="43.50117" lon="6.37547">
        <ele>260.6</ele>
        <time>2018-06-20T09:59:19Z</time>
      </trkpt>
      <trkpt lat="43.50114" lon="6.37535">
        <ele>261.7</ele>
        <time>2018-06-20T09:59:31Z</time>
      </trkpt>
      <trkpt lat="43.50108" lon="6.37524">
        <ele>262.8</ele>
        <time>2018-06-20T09:59:50Z</time>
      </trkpt>
      <trkpt lat="43.50104" lon="6.37513">
        <ele>264.3</ele>
        <time>2018-06-20T10:00:07Z</time>
      </trkpt>
      <trkpt lat="43.50101" lon="6.375">
        <ele>265.4</ele>
        <time>2018-06-20T10:00:23Z</time>
      </trkpt>
      <trkpt lat="43.50095" lon="6.37491">
        <ele>267.1</ele>
        <time>2018-06-20T10:00:40Z</time>
      </trkpt>
      <trkpt lat="43.50093" lon="6.37478">
        <ele>268.7</ele>
        <time>2018-06-20T10:00:56Z</time>
      </trkpt>
      <trkpt lat="43.50087" lon="6.37467">
        <ele>270.3</ele>
        <time>2018-06-20T10:01:11Z</time>
      </trkpt>
      <trkpt lat="43.50087" lon="6.37454">
        <ele>271.6</ele>
        <time>2018-06-20T10:01:25Z</time>
      </trkpt>
      <trkpt lat="43.50084" lon="6.37441">
        <ele>272.8</ele>
        <time>2018-06-20T10:01:36Z</time>
      </trkpt>
      <trkpt lat="43.50082" lon="6.37429">
        <ele>274.2</ele>
        <time>2018-06-20T10:01:53Z</time>
      </trkpt>
      <trkpt lat="43.50084" lon="6.37416">
        <ele>275.1</ele>
        <time>2018-06-20T10:02:05Z</time>
      </trkpt>
      <trkpt lat="43.5008" lon="6.37404">
        <ele>276.3</ele>
        <time>2018-06-20T10:02:26Z</time>
      </trkpt>
      <trkpt lat="43.50074" lon="6.37395">
        <ele>276.8</ele>
        <time>2018-06-20T10:02:44Z</time>
      </trkpt>
      <trkpt lat="43.50072" lon="6.37383">
        <ele>278.4</ele>
        <time>2018-06-20T10:03:15Z</time>
      </trkpt>
      <trkpt lat="43.50065" lon="6.37377">
        <ele>278.7</ele>
        <time>2018-06-20T10:03:34Z</time>
      </trkpt>
    </trkseg>
  </trk>
</gpx>